Milas, Turkey

1:00 AM EEST on October 24, 2014 (GMT +0300)
Ippokratis | Change Station
CLOSE
Current Station
Airport
Location: Kos,
Elevation: 129 m
Nearby Weather Stations

Elev 129 m 36.80 °N, 27.09 °E | Updated 10 minutes ago

Mostly Cloudy
Mostly Cloudy
19 °C
Feels Like 19 °C
N
17
Wind Variable Wind from West

Today
High -- | Low -- °C
--% Chance of Precip.
Yesterday
High -- | Low -- °C
Precip. -- mm
7:25 AM 6:21 PM
Waning Crescent, 0% visible
Pressure 1010 hPa
Visibility 10.0 kilometers
Clouds Few 548 m
Scattered Clouds 609 m
Mostly Cloudy 5486 m
Dew Point 14 °C
Humidity 73%
Rainfall 0.0 mm
Snow Depth Not available.
UV 0 out of 12
Pollen Not available.
Air Quality Not available.
Flu Activity Not available.
METAR LGKO 232150Z 28009KT 9999 FEW018TCU SCT020 BKN180 19/14 Q1010

More Conditions Fewer Conditions

Pressure 1010 hPa
Visibility 10.0 kilometers
Clouds Few 548 m
Scattered Clouds 609 m
Mostly Cloudy 5486 m
Dew Point 14 °C
Humidity 73%
Rainfall 0.0 mm
Snow Depth Not available.
UV 0 out of 12
Pollen Not available.
Air Quality Not available.
Flu Activity Not available.
METAR LGKO 232150Z 28009KT 9999 FEW018TCU SCT020 BKN180 19/14 Q1010

More Conditions Fewer Conditions

10-Day Weather Forecast

Almanac

Astronomy

Oct. 24, 2014 Rise Set
Actual Time 7:25 AM EEST 6:21 PM EEST
Civil Twilight 6:58 AM EEST 6:47 PM EEST
Nautical Twilight 6:28 AM EEST 7:17 PM EEST
Astronomical Twilight 5:58 AM EEST 7:48 PM EEST
Moon 7:44 AM EEST (10/24) 6:48 PM EEST (10/24)
Length of Visible Light 11h 48m
Length of Day
10h 55m
Tomorrow will be 2m 11s shorter.
Waning Crescent, 0% of the Moon is Illuminated
Oct 23
Waning Crescent
Oct 30
First Quarter
Nov 6
Full
Nov 14
Last Quarter
Nov 22
New

Yesterday's Extremes

Country Highs Country Lows

Community

WunderPhotos

Upload Photos

1,764,383 photos uploaded!

WunderBlogs® & News

Nearby

Snow Depth

Not available.

Earthquake Activity

City Distance Mag. Time & Date
No recent earthquake activity has been reported nearby.
Minimum magnitude displayed is 2.5.

Coastal Water Temperatures

Place Temperature
No Stations Reporting

Nearby Weather Stations